Time;durP1;ratioP1;P1;durP2;ratioP2;P2;SDS_P1;SDS_P2;PMS_P1;PMS_P2;Temp;Humidity;BMP_temperature;BMP_pressure;BME280_temperature;BME280_humidity;BME280_pressure;Samples;Min_cycle;Max_cycle;Signal;HPM_P1;HPM_P2
2022/12/01 00:02:15;;;;;;;19.87;10.90;;;3.50;99.90;;;;;;5026234;28;20274;-59
2022/12/01 00:04:41;;;;;;;20.90;11.17;;;3.50;99.90;;;;;;5026917;28;20266;-59
2022/12/01 00:07:06;;;;;;;15.63;9.20;;;3.50;99.90;;;;;;5024920;28;20714;-59
2022/12/01 00:12:16;;;;;;;27.50;10.30;;;3.50;99.90;;;;;;5025485;28;20197;-58
2022/12/01 00:14:41;;;;;;;22.73;10.50;;;3.50;99.90;;;;;;5029432;28;20990;-59
2022/12/01 00:17:07;;;;;;;19.90;10.87;;;3.50;99.90;;;;;;5027125;28;20266;-59
2022/12/01 00:19:32;;;;;;;19.30;10.30;;;3.50;99.90;;;;;;5025429;28;20204;-59
2022/12/01 00:22:03;;;;;;;18.40;10.60;;;3.40;99.90;;;;;;5028571;28;20176;-58
2022/12/01 00:24:29;;;;;;;17.80;9.40;;;3.40;99.90;;;;;;5027311;28;20186;-59
2022/12/01 00:26:54;;;;;;;13.80;8.40;;;3.40;99.90;;;;;;5027371;28;20880;-59
2022/12/01 00:29:20;;;;;;;16.43;9.47;;;3.30;99.90;;;;;;5028587;28;20564;-59
2022/12/01 00:31:45;;;;;;;13.90;8.10;;;3.30;99.90;;;;;;5027624;28;20239;-58
2022/12/01 00:34:21;;;;;;;15.10;8.60;;;3.30;99.90;;;;;;5021731;28;20551;-59
2022/12/01 00:36:47;;;;;;;14.90;8.67;;;3.20;99.90;;;;;;5030774;28;20209;-58
2022/12/01 00:39:12;;;;;;;15.90;8.57;;;3.20;99.90;;;;;;5011277;28;20438;-59
2022/12/01 00:41:38;;;;;;;13.50;8.30;;;3.20;99.90;;;;;;5024205;28;20567;-58
2022/12/01 00:44:04;;;;;;;13.77;8.50;;;3.30;99.90;;;;;;5027591;28;20191;-59
2022/12/01 00:46:30;;;;;;;17.00;8.00;;;3.20;99.90;;;;;;5028387;28;20254;-59
2022/12/01 00:48:55;;;;;;;15.33;8.43;;;3.20;99.90;;;;;;5026398;28;20994;-58
2022/12/01 00:51:21;;;;;;;14.53;7.93;;;3.20;99.90;;;;;;5027535;28;20645;-58
2022/12/01 00:53:46;;;;;;;16.33;8.70;;;3.20;99.90;;;;;;5027313;28;20176;-58
2022/12/01 00:56:12;;;;;;;16.43;9.20;;;3.20;99.90;;;;;;5026357;28;20802;-58
2022/12/01 00:58:38;;;;;;;13.67;8.90;;;3.20;99.90;;;;;;5025988;28;20196;-58
2022/12/01 01:01:03;;;;;;;15.83;8.93;;;3.20;99.90;;;;;;5008083;28;20179;-58
2022/12/01 01:03:31;;;;;;;20.70;9.87;;;3.20;99.90;;;;;;5027677;28;20592;-58
2022/12/01 01:06:09;;;;;;;18.43;10.17;;;3.20;99.90;;;;;;5031943;28;20225;-58
2022/12/01 01:08:36;;;;;;;24.10;12.30;;;3.30;99.90;;;;;;5035301;28;20426;-59
2022/12/01 01:11:02;;;;;;;21.77;11.80;;;3.30;99.90;;;;;;5009495;28;20799;-58
2022/12/01 01:13:28;;;;;;;24.83;12.60;;;3.30;99.90;;;;;;5027697;28;20422;-59
2022/12/01 01:16:18;;;;;;;24.03;12.53;;;3.30;99.90;;;;;;5026826;28;20925;-58
2022/12/01 01:18:44;;;;;;;22.13;12.47;;;3.20;99.90;;;;;;5010142;28;20434;-58
2022/12/01 01:21:13;;;;;;;26.87;12.83;;;3.20;99.90;;;;;;5024154;28;20541;-59
2022/12/01 01:23:39;;;;;;;23.60;12.90;;;3.20;99.90;;;;;;5025319;28;20446;-58
2022/12/01 01:26:15;;;;;;;22.57;12.90;;;3.20;99.90;;;;;;5028217;28;21009;-58
2022/12/01 01:28:41;;;;;;;28.17;14.20;;;3.20;99.90;;;;;;5028896;28;20203;-57
2022/12/01 01:31:08;;;;;;;28.13;13.47;;;3.20;99.90;;;;;;5031630;28;20472;-58
2022/12/01 01:33:35;;;;;;;24.17;13.70;;;3.10;99.90;;;;;;5029260;28;20183;-58
2022/12/01 01:36:01;;;;;;;25.80;14.27;;;3.10;99.90;;;;;;5035295;28;20478;-58
2022/12/01 01:38:28;;;;;;;24.30;13.43;;;3.10;99.90;;;;;;5031264;28;20433;-58
2022/12/01 01:40:53;;;;;;;26.20;13.10;;;3.10;99.90;;;;;;5029268;28;20453;-58
2022/12/01 01:43:38;;;;;;;23.23;11.80;;;3.10;99.90;;;;;;5030156;28;20899;-58
2022/12/01 01:46:04;;;;;;;26.20;13.00;;;3.10;99.90;;;;;;5031460;28;20187;-57
2022/12/01 01:48:30;;;;;;;22.97;12.30;;;3.10;99.90;;;;;;5031594;28;20951;-58
2022/12/01 01:50:56;;;;;;;24.93;12.87;;;3.10;99.90;;;;;;5011639;28;20466;-58
2022/12/01 01:53:22;;;;;;;22.67;12.67;;;3.00;99.90;;;;;;5027727;28;20957;-57
2022/12/01 01:55:48;;;;;;;22.67;12.50;;;3.00;99.90;;;;;;5030004;28;20309;-58
2022/12/01 01:58:13;;;;;;;20.27;10.87;;;3.00;99.90;;;;;;5031238;28;21180;-57
2022/12/01 02:00:42;;;;;;;18.07;10.57;;;3.00;99.90;;;;;;5010341;28;20571;-58
2022/12/01 02:03:11;;;;;;;17.50;9.70;;;3.00;99.90;;;;;;5031071;28;20180;-57
2022/12/01 02:05:38;;;;;;;16.90;9.60;;;3.00;99.90;;;;;;5032024;28;20441;-58
2022/12/01 02:08:11;;;;;;;17.10;9.07;;;2.90;99.90;;;;;;5029588;28;21126;-58
2022/12/01 02:10:57;;;;;;;16.97;9.87;;;2.90;99.90;;;;;;5032337;28;20465;-58
2022/12/01 02:13:43;;;;;;;20.20;9.60;;;2.80;99.90;;;;;;5029627;28;20431;-57
2022/12/01 02:16:09;;;;;;;15.03;9.20;;;2.70;99.90;;;;;;5029778;28;20426;-57
2022/12/01 02:18:40;;;;;;;16.93;9.30;;;2.70;99.90;;;;;;5028874;28;20436;-58
2022/12/01 02:21:15;;;;;;;20.10;11.20;;;2.70;99.90;;;;;;5028254;28;20667;-58
2022/12/01 02:23:59;;;;;;;17.63;9.73;;;2.60;99.90;;;;;;5026433;28;20413;-58
2022/12/01 02:26:49;;;;;;;17.97;10.13;;;2.60;99.90;;;;;;5023111;28;20858;-58
2022/12/01 02:29:23;;;;;;;24.40;12.60;;;2.60;99.90;;;;;;5024933;28;20473;-57
2022/12/01 02:32:10;;;;;;;27.63;11.03;;;2.50;99.90;;;;;;5028438;28;20437;-58
2022/12/01 02:34:55;;;;;;;24.53;12.10;;;2.50;99.90;;;;;;5026982;28;20427;-58
2022/12/01 02:37:30;;;;;;;22.67;11.47;;;2.60;99.90;;;;;;5012050;28;20434;-56
2022/12/01 02:40:10;;;;;;;20.10;11.73;;;2.60;99.90;;;;;;5028274;28;20454;-57
2022/12/01 02:42:49;;;;;;;22.53;11.50;;;2.50;99.90;;;;;;5026134;28;20842;-57
2022/12/01 02:45:28;;;;;;;21.10;11.60;;;2.50;99.90;;;;;;5029168;28;20434;-58
2022/12/01 02:47:58;;;;;;;23.10;10.93;;;2.50;99.90;;;;;;5030490;28;20505;-57
2022/12/01 02:50:26;;;;;;;24.30;12.30;;;2.50;99.90;;;;;;5029950;28;20474;-58
2022/12/01 02:52:53;;;;;;;26.93;12.60;;;2.60;99.90;;;;;;5029939;28;20457;-58
2022/12/01 02:55:19;;;;;;;20.60;11.40;;;2.60;99.90;;;;;;5026397;28;20468;-58
2022/12/01 02:57:44;;;;;;;26.70;12.47;;;2.60;99.90;;;;;;5028770;28;20462;-58
2022/12/01 03:00:12;;;;;;;26.67;13.10;;;2.50;99.90;;;;;;5031816;28;20241;-58
2022/12/01 03:03:06;;;;;;;24.40;12.97;;;2.50;99.90;;;;;;5022138;28;20184;-58
2022/12/01 03:06:11;;;;;;;27.07;13.07;;;2.50;99.90;;;;;;5028555;28;20438;-58
2022/12/01 03:08:38;;;;;;;27.50;12.33;;;2.50;99.90;;;;;;4964662;28;20853;-58
2022/12/01 03:11:03;;;;;;;31.03;13.87;;;2.40;99.90;;;;;;5030621;28;20835;-58
2022/12/01 03:13:41;;;;;;;35.23;17.53;;;2.40;99.90;;;;;;5027391;28;20464;-57
2022/12/01 03:16:15;;;;;;;29.13;13.80;;;2.40;99.90;;;;;;5028123;28;20183;-58
2022/12/01 03:19:01;;;;;;;25.97;14.47;;;2.40;99.90;;;;;;5031258;28;20441;-58
2022/12/01 03:22:02;;;;;;;28.50;13.00;;;2.40;99.90;;;;;;5026817;28;20461;-57
2022/12/01 03:24:31;;;;;;;31.10;14.20;;;2.40;99.90;;;;;;4972819;28;21052;-59
2022/12/01 03:26:59;;;;;;;30.03;14.93;;;2.40;99.90;;;;;;5023557;28;20445;-59
2022/12/01 03:29:47;;;;;;;29.10;12.40;;;2.40;99.90;;;;;;5027722;28;20472;-59
2022/12/01 03:33:03;;;;;;;32.37;15.53;;;2.40;99.90;;;;;;5021444;28;20438;-59
2022/12/01 03:35:40;;;;;;;33.10;16.33;;;2.40;99.90;;;;;;5007706;28;20935;-59
2022/12/01 03:38:20;;;;;;;34.10;17.03;;;2.40;99.90;;;;;;5025685;28;20528;-59
2022/12/01 03:40:48;;;;;;;36.97;16.80;;;2.40;99.90;;;;;;5026958;28;20449;-59
2022/12/01 03:43:19;;;;;;;39.13;18.40;;;2.40;99.90;;;;;;5027231;28;20453;-57
2022/12/01 03:45:49;;;;;;;41.60;18.50;;;2.50;99.90;;;;;;5024817;28;20440;-59
2022/12/01 03:48:15;;;;;;;38.47;18.63;;;2.50;99.90;;;;;;5025470;28;20434;-57
2022/12/01 03:50:51;;;;;;;43.60;19.03;;;2.50;99.90;;;;;;5022293;28;20884;-59
2022/12/01 03:53:27;;;;;;;37.40;17.27;;;2.50;99.90;;;;;;5027359;28;20179;-57
2022/12/01 03:56:01;;;;;;;31.53;16.13;;;2.40;99.90;;;;;;5027191;28;20434;-58
2022/12/01 03:58:38;;;;;;;34.33;17.00;;;2.40;99.90;;;;;;5028205;28;20441;-57
2022/12/01 04:01:05;;;;;;;36.17;16.50;;;2.40;99.90;;;;;;5023945;28;20436;-57
2022/12/01 04:03:32;;;;;;;39.17;16.20;;;2.30;99.90;;;;;;5029059;28;20442;-58
2022/12/01 04:05:58;;;;;;;30.53;14.33;;;2.40;99.90;;;;;;5008935;28;20453;-58
2022/12/01 04:08:24;;;;;;;26.80;13.67;;;2.30;99.90;;;;;;5024123;28;20438;-58
2022/12/01 04:10:50;;;;;;;30.70;14.73;;;2.30;99.90;;;;;;5026456;28;20211;-58
2022/12/01 04:13:21;;;;;;;37.23;15.77;;;2.30;99.90;;;;;;5030644;28;20199;-57
2022/12/01 04:15:53;;;;;;;33.10;13.77;;;2.20;99.90;;;;;;5028401;28;20437;-58
2022/12/01 04:18:20;;;;;;;29.17;13.53;;;2.20;99.90;;;;;;5025194;28;20489;-58
2022/12/01 04:20:47;;;;;;;30.13;14.87;;;2.10;99.90;;;;;;5024624;28;20454;-58
2022/12/01 04:26:02;;;;;;;32.90;15.03;;;2.10;99.90;;;;;;5024782;28;20457;-58
2022/12/01 04:28:28;;;;;;;35.63;16.10;;;2.20;99.90;;;;;;5011036;28;20878;-58
2022/12/01 04:30:53;;;;;;;34.50;15.67;;;2.20;99.90;;;;;;5028094;28;20466;-58
2022/12/01 04:33:19;;;;;;;30.77;15.10;;;2.20;99.90;;;;;;5029198;28;20425;-58
2022/12/01 04:35:45;;;;;;;32.93;15.13;;;2.20;99.90;;;;;;5022480;28;20180;-58
2022/12/01 04:38:11;;;;;;;28.70;14.10;;;2.20;99.90;;;;;;5028240;28;20190;-58
2022/12/01 04:40:39;;;;;;;33.70;14.13;;;2.20;99.90;;;;;;5023580;28;20230;-59
2022/12/01 04:43:05;;;;;;;27.30;13.00;;;2.20;99.90;;;;;;5023567;28;20199;-58
2022/12/01 04:45:30;;;;;;;26.70;12.80;;;2.20;99.90;;;;;;5028909;28;20426;-58
2022/12/01 04:47:56;;;;;;;26.20;12.03;;;2.20;99.90;;;;;;5030300;28;20183;-58
2022/12/01 04:50:21;;;;;;;28.20;12.20;;;2.20;99.90;;;;;;5027063;28;20201;-58
2022/12/01 04:52:47;;;;;;;29.47;13.50;;;2.20;99.90;;;;;;5032236;28;20180;-58
2022/12/01 04:55:14;;;;;;;29.97;14.00;;;2.20;99.90;;;;;;5026135;28;20766;-58
2022/12/01 04:57:40;;;;;;;24.83;10.90;;;2.20;99.90;;;;;;5027295;28;20208;-58
2022/12/01 05:00:12;;;;;;;22.60;11.40;;;2.20;99.90;;;;;;5025522;28;20497;-57
2022/12/01 05:02:42;;;;;;;24.07;11.10;;;2.20;99.90;;;;;;5014567;28;20439;-58
2022/12/01 05:05:09;;;;;;;26.40;10.80;;;2.20;99.90;;;;;;5018974;28;20800;-57
2022/12/01 05:07:35;;;;;;;23.33;11.80;;;2.30;99.90;;;;;;5015603;28;20434;-58
2022/12/01 05:10:00;;;;;;;17.83;9.67;;;2.40;99.90;;;;;;5029429;28;20469;-58
2022/12/01 05:12:26;;;;;;;20.50;8.90;;;2.40;99.90;;;;;;5023369;28;20179;-57
2022/12/01 05:14:52;;;;;;;22.40;10.13;;;2.40;99.90;;;;;;5023525;28;20305;-58
2022/12/01 05:17:17;;;;;;;19.10;9.20;;;2.40;99.90;;;;;;5026875;28;20546;-58
2022/12/01 05:22:27;;;;;;;19.37;9.40;;;2.40;99.90;;;;;;5028791;28;20825;-58
2022/12/01 05:24:53;;;;;;;17.43;9.83;;;2.30;99.90;;;;;;5027524;28;20439;-56
2022/12/01 05:27:18;;;;;;;15.53;8.87;;;2.30;99.90;;;;;;5023501;28;20171;-58
2022/12/01 05:29:44;;;;;;;21.17;9.60;;;2.30;99.90;;;;;;5023476;28;20239;-58
2022/12/01 05:32:09;;;;;;;16.40;9.47;;;2.30;99.90;;;;;;5024171;28;20180;-59
2022/12/01 05:34:35;;;;;;;20.30;9.17;;;2.30;99.90;;;;;;5021745;28;20182;-58
2022/12/01 05:37:01;;;;;;;19.63;10.27;;;2.30;99.90;;;;;;5024299;28;20194;-55
2022/12/01 05:39:26;;;;;;;22.43;11.10;;;2.30;99.90;;;;;;5021897;28;20277;-58
2022/12/01 05:41:52;;;;;;;24.37;10.93;;;2.30;99.90;;;;;;5021152;28;20187;-58
2022/12/01 05:44:18;;;;;;;25.10;11.63;;;2.30;99.90;;;;;;5015669;28;20180;-58
2022/12/01 05:46:44;;;;;;;22.13;11.87;;;2.20;99.90;;;;;;5021206;28;20445;-58
2022/12/01 05:49:10;;;;;;;19.90;10.93;;;2.20;99.90;;;;;;5029547;28;20290;-58
2022/12/01 05:51:35;;;;;;;23.50;10.97;;;2.30;99.90;;;;;;5030759;28;20176;-58
2022/12/01 05:54:01;;;;;;;26.47;11.97;;;2.30;99.90;;;;;;5028224;28;20190;-58
2022/12/01 05:56:27;;;;;;;26.30;10.87;;;2.30;99.90;;;;;;5024020;28;20262;-59
2022/12/01 05:58:52;;;;;;;19.00;10.67;;;2.40;99.90;;;;;;5030365;28;20209;-59
2022/12/01 06:01:18;;;;;;;17.47;9.80;;;2.30;99.90;;;;;;5028823;28;20191;-59
2022/12/01 06:03:43;;;;;;;20.80;10.03;;;2.30;99.90;;;;;;5033943;28;20176;-58
2022/12/01 06:06:09;;;;;;;18.80;10.77;;;2.30;99.90;;;;;;5021816;28;20206;-58
2022/12/01 06:08:35;;;;;;;20.90;10.57;;;2.30;99.90;;;;;;5027030;28;20229;-58
2022/12/01 06:11:00;;;;;;;20.50;10.43;;;2.30;99.90;;;;;;5029174;28;20674;-58
2022/12/01 06:13:26;;;;;;;22.40;10.80;;;2.30;99.90;;;;;;5026547;28;20182;-57
2022/12/01 06:15:59;;;;;;;21.67;10.80;;;2.30;99.90;;;;;;5030892;28;20696;-58
2022/12/01 06:18:26;;;;;;;22.50;11.57;;;2.30;99.90;;;;;;5030515;28;20534;-58
2022/12/01 06:20:52;;;;;;;19.63;9.73;;;2.30;99.90;;;;;;5026995;28;20597;-58
2022/12/01 06:23:17;;;;;;;23.30;10.47;;;2.30;99.90;;;;;;5028509;28;20525;-58
2022/12/01 06:25:43;;;;;;;20.13;10.27;;;2.30;99.90;;;;;;5017482;28;20233;-59
2022/12/01 06:28:08;;;;;;;16.50;8.50;;;2.30;99.90;;;;;;5024396;28;20555;-57
2022/12/01 06:30:34;;;;;;;18.20;9.80;;;2.30;99.90;;;;;;5026817;28;20207;-56
2022/12/01 06:33:00;;;;;;;44.80;20.70;;;2.30;99.90;;;;;;5028064;28;20310;-59
2022/12/01 06:35:25;;;;;;;32.73;14.70;;;2.30;99.90;;;;;;5026145;28;20191;-59
2022/12/01 06:37:53;;;;;;;24.00;9.90;;;2.30;99.90;;;;;;5026386;28;20180;-58
2022/12/01 06:40:19;;;;;;;13.63;7.30;;;2.30;99.90;;;;;;5030734;28;20194;-59
2022/12/01 06:42:44;;;;;;;13.63;7.13;;;2.30;99.90;;;;;;5028702;28;20934;-58
2022/12/01 06:45:10;;;;;;;18.53;9.80;;;2.30;99.90;;;;;;5033375;28;20430;-59
2022/12/01 06:47:36;;;;;;;17.63;9.20;;;2.30;99.90;;;;;;5029749;28;20190;-59
2022/12/01 06:50:04;;;;;;;22.20;9.90;;;2.30;99.90;;;;;;5035231;28;20488;-58
2022/12/01 06:52:29;;;;;;;18.93;10.00;;;2.30;99.90;;;;;;5035064;28;20433;-58
2022/12/01 06:54:55;;;;;;;19.83;10.30;;;2.30;99.90;;;;;;5021439;28;20441;-58
2022/12/01 06:57:20;;;;;;;20.00;9.60;;;2.40;99.90;;;;;;5023469;28;20186;-59
2022/12/01 06:59:46;;;;;;;27.50;11.23;;;2.40;99.90;;;;;;5025514;28;20218;-59
2022/12/01 07:02:12;;;;;;;21.10;9.73;;;2.40;99.90;;;;;;5026862;28;20275;-58
2022/12/01 07:04:37;;;;;;;20.63;10.43;;;2.40;99.90;;;;;;5024160;28;20184;-58
2022/12/01 07:07:04;;;;;;;20.60;10.70;;;2.40;99.90;;;;;;5024013;28;20180;-59
2022/12/01 07:09:30;;;;;;;21.07;10.73;;;2.40;99.90;;;;;;5014121;28;20676;-58
2022/12/01 07:11:55;;;;;;;21.20;10.20;;;2.40;99.90;;;;;;5022374;28;20441;-58
2022/12/01 07:14:23;;;;;;;20.33;10.10;;;2.40;99.90;;;;;;5028487;28;20655;-58
2022/12/01 07:16:48;;;;;;;19.10;9.90;;;2.40;99.90;;;;;;5032307;28;20542;-58
2022/12/01 07:19:14;;;;;;;19.80;10.37;;;2.40;99.90;;;;;;5024985;28;20457;-58
2022/12/01 07:21:40;;;;;;;23.37;11.03;;;2.40;99.90;;;;;;5020936;28;20689;-58
2022/12/01 07:24:06;;;;;;;20.70;9.90;;;2.40;99.90;;;;;;5030491;28;20194;-58
2022/12/01 07:26:31;;;;;;;22.93;10.77;;;2.50;99.90;;;;;;5026162;28;20191;-59
2022/12/01 07:28:57;;;;;;;20.60;10.30;;;2.50;99.90;;;;;;5026721;28;20481;-58
2022/12/01 07:31:22;;;;;;;20.97;10.97;;;2.50;99.90;;;;;;5025373;28;20235;-58
2022/12/01 07:33:48;;;;;;;23.50;10.87;;;2.50;99.90;;;;;;5027784;28;20178;-58
2022/12/01 07:36:14;;;;;;;23.13;11.00;;;2.50;99.90;;;;;;5021754;28;20294;-59
2022/12/01 07:38:41;;;;;;;22.60;11.67;;;2.50;99.90;;;;;;5024999;28;20183;-59
2022/12/01 07:41:06;;;;;;;20.57;10.50;;;2.50;99.90;;;;;;5028513;28;20453;-59
2022/12/01 07:43:32;;;;;;;20.20;9.90;;;2.50;99.90;;;;;;5024435;28;20930;-60
2022/12/01 07:46:06;;;;;;;23.70;11.13;;;2.50;99.90;;;;;;5025521;28;20187;-58
2022/12/01 07:48:31;;;;;;;21.33;11.20;;;2.50;99.90;;;;;;5028015;28;20430;-58
2022/12/01 07:50:57;;;;;;;28.60;12.07;;;2.60;99.90;;;;;;5030202;28;20492;-59
2022/12/01 07:53:23;;;;;;;25.00;11.90;;;2.60;99.90;;;;;;5028686;28;20253;-59
2022/12/01 07:55:49;;;;;;;25.80;11.93;;;2.50;99.90;;;;;;5024866;28;20295;-58
2022/12/01 07:58:15;;;;;;;21.90;11.30;;;2.60;99.90;;;;;;5022545;28;20195;-59
2022/12/01 08:00:41;;;;;;;25.67;12.00;;;2.60;99.90;;;;;;5023724;28;20571;-59
2022/12/01 08:03:06;;;;;;;25.83;12.87;;;2.60;99.90;;;;;;5035159;28;20966;-59
2022/12/01 08:05:32;;;;;;;24.47;12.43;;;2.50;99.90;;;;;;5019405;28;20195;-59
2022/12/01 08:07:58;;;;;;;20.87;11.60;;;2.50;99.90;;;;;;5022285;28;20779;-59
2022/12/01 08:10:23;;;;;;;19.67;11.07;;;2.50;99.90;;;;;;5021015;28;20222;-60
2022/12/01 08:12:49;;;;;;;20.33;11.00;;;2.50;99.90;;;;;;5025413;28;20208;-59
2022/12/01 08:15:15;;;;;;;26.43;11.83;;;2.50;99.90;;;;;;5020475;28;20628;-59
2022/12/01 08:17:40;;;;;;;26.07;11.30;;;2.50;99.90;;;;;;5023932;28;20645;-59
2022/12/01 08:20:06;;;;;;;28.43;12.67;;;2.50;99.90;;;;;;5023901;28;20207;-59
2022/12/01 08:22:32;;;;;;;22.23;11.97;;;2.50;99.90;;;;;;5020671;28;20210;-59
2022/12/01 08:24:58;;;;;;;27.43;12.27;;;2.50;99.90;;;;;;5028559;28;20988;-59
2022/12/01 08:27:23;;;;;;;25.17;12.10;;;2.60;99.90;;;;;;5029990;28;20198;-58
2022/12/01 08:29:49;;;;;;;26.10;12.20;;;2.60;99.90;;;;;;5032516;28;20294;-58
2022/12/01 08:32:16;;;;;;;28.07;12.47;;;2.60;99.90;;;;;;5036974;28;20183;-58
2022/12/01 08:34:41;;;;;;;24.30;12.97;;;2.60;99.90;;;;;;5028897;28;20215;-58
2022/12/01 08:37:07;;;;;;;24.73;12.67;;;2.60;99.90;;;;;;5015745;28;20425;-59
2022/12/01 08:39:33;;;;;;;27.57;12.13;;;2.60;99.90;;;;;;5014818;28;20570;-58
2022/12/01 08:41:58;;;;;;;25.03;12.70;;;2.70;99.90;;;;;;5034359;28;20175;-58
2022/12/01 08:44:24;;;;;;;25.23;12.97;;;2.70;99.90;;;;;;5010295;28;21064;-58
2022/12/01 08:46:50;;;;;;;21.33;12.20;;;2.60;99.90;;;;;;5033818;28;20218;-58
2022/12/01 08:49:15;;;;;;;19.87;11.40;;;2.60;99.90;;;;;;5027329;28;20204;-58
2022/12/01 08:51:41;;;;;;;24.80;12.10;;;2.60;99.90;;;;;;5027812;28;20184;-58
2022/12/01 08:54:06;;;;;;;26.77;12.90;;;2.60;99.90;;;;;;5010417;28;20179;-59
2022/12/01 08:56:36;;;;;;;24.50;12.50;;;2.60;99.90;;;;;;5027131;28;20559;-59
2022/12/01 08:59:02;;;;;;;23.17;11.90;;;2.60;99.90;;;;;;5033528;28;20203;-59
2022/12/01 09:01:28;;;;;;;27.00;13.47;;;2.70;99.90;;;;;;5030468;28;20427;-59
2022/12/01 09:04:07;;;;;;;23.57;12.37;;;2.70;99.90;;;;;;5023411;28;20451;-59
2022/12/01 09:06:38;;;;;;;25.73;12.60;;;2.70;99.90;;;;;;5020132;28;20768;-59
2022/12/01 09:09:03;;;;;;;23.17;11.83;;;2.70;99.90;;;;;;5027337;28;20462;-59
2022/12/01 09:11:29;;;;;;;26.50;12.43;;;2.80;99.90;;;;;;5031477;28;20518;-59
2022/12/01 09:13:54;;;;;;;24.13;11.97;;;2.80;99.90;;;;;;5011862;28;20233;-59
2022/12/01 09:16:20;;;;;;;25.40;12.40;;;2.80;99.90;;;;;;5020466;28;20186;-59
2022/12/01 09:18:46;;;;;;;23.57;12.67;;;2.80;99.90;;;;;;5024518;28;20195;-60
2022/12/01 09:21:14;;;;;;;25.30;11.20;;;2.80;99.90;;;;;;5030507;28;20649;-58
2022/12/01 09:23:39;;;;;;;25.80;12.70;;;2.80;99.90;;;;;;5020898;28;20438;-59
2022/12/01 09:26:06;;;;;;;24.80;12.77;;;2.80;99.90;;;;;;5022500;28;20438;-59
2022/12/01 09:28:31;;;;;;;31.00;12.67;;;2.90;99.90;;;;;;5027266;28;20172;-59
2022/12/01 09:31:06;;;;;;;23.03;11.00;;;2.90;99.90;;;;;;5026394;28;20536;-59
2022/12/01 09:33:32;;;;;;;20.10;10.90;;;2.90;99.90;;;;;;5005257;28;20179;-59
2022/12/01 09:35:59;;;;;;;25.47;11.03;;;2.90;99.90;;;;;;5028639;28;20440;-59
2022/12/01 09:38:25;;;;;;;27.33;12.90;;;2.90;99.90;;;;;;5027892;28;20515;-59
2022/12/01 09:40:51;;;;;;;31.43;12.27;;;3.00;99.90;;;;;;5025875;28;20454;-58
2022/12/01 09:43:21;;;;;;;27.97;12.20;;;3.00;99.90;;;;;;5011107;28;20443;-58
2022/12/01 09:45:53;;;;;;;22.40;11.27;;;3.00;99.90;;;;;;5023920;28;20947;-59
2022/12/01 09:48:31;;;;;;;28.77;12.03;;;3.00;99.90;;;;;;5025658;28;20461;-59
2022/12/01 09:50:57;;;;;;;24.23;11.10;;;3.00;99.90;;;;;;5026353;28;20530;-59
2022/12/01 09:53:25;;;;;;;24.73;11.00;;;3.00;99.90;;;;;;5025963;28;20426;-58
2022/12/01 09:55:51;;;;;;;22.03;11.13;;;3.00;99.90;;;;;;5025901;28;20522;-59
2022/12/01 09:58:23;;;;;;;20.83;11.77;;;3.00;99.90;;;;;;5028756;28;20435;-59
2022/12/01 10:00:51;;;;;;;23.87;11.90;;;3.00;99.90;;;;;;5022230;28;20454;-59
2022/12/01 10:03:29;;;;;;;20.70;11.10;;;3.00;99.90;;;;;;5026597;28;20426;-58
2022/12/01 10:06:18;;;;;;;25.57;10.63;;;3.00;99.90;;;;;;5024132;28;20434;-59
2022/12/01 10:09:04;;;;;;;24.53;9.53;;;3.00;99.90;;;;;;5027525;28;20493;-59
2022/12/01 10:11:35;;;;;;;21.50;10.63;;;3.00;99.90;;;;;;5026018;28;20486;-58
2022/12/01 10:14:02;;;;;;;17.37;9.60;;;3.00;99.90;;;;;;5016037;28;20432;-59
2022/12/01 10:16:36;;;;;;;19.43;10.37;;;3.10;99.90;;;;;;5023135;28;20474;-58
2022/12/01 10:19:02;;;;;;;19.03;10.20;;;3.10;99.90;;;;;;5025440;28;20448;-59
2022/12/01 10:21:55;;;;;;;18.97;9.87;;;3.20;99.90;;;;;;5019738;28;20426;-59
2022/12/01 10:25:08;;;;;;;19.87;9.87;;;3.20;99.90;;;;;;5015777;28;20267;-58
2022/12/01 10:27:42;;;;;;;23.53;10.43;;;3.20;99.90;;;;;;4923322;28;20446;-58
2022/12/01 10:30:15;;;;;;;23.33;10.40;;;3.20;99.90;;;;;;5014717;28;20462;-58
2022/12/01 10:32:53;;;;;;;16.63;8.80;;;3.20;99.90;;;;;;5021822;28;20494;-59
2022/12/01 10:38:35;;;;;;;17.70;9.00;;;3.20;99.90;;;;;;4996960;28;20442;-58
2022/12/01 10:41:03;;;;;;;17.03;8.90;;;3.30;99.90;;;;;;5007883;28;20541;-58
2022/12/01 10:43:56;;;;;;;14.57;7.40;;;3.30;99.90;;;;;;5029011;28;20446;-57
2022/12/01 10:46:46;;;;;;;14.97;7.90;;;3.30;99.90;;;;;;5021832;28;20478;-59
2022/12/01 10:49:14;;;;;;;15.33;8.80;;;3.30;99.90;;;;;;5021570;28;20458;-58
2022/12/01 10:51:55;;;;;;;16.67;8.27;;;3.30;99.90;;;;;;5025810;28;20946;-58
2022/12/01 10:54:22;;;;;;;16.43;9.17;;;3.40;99.90;;;;;;5025960;28;20525;-58
2022/12/01 10:56:54;;;;;;;18.20;8.40;;;3.40;99.90;;;;;;5028390;28;20449;-58
2022/12/01 10:59:19;;;;;;;16.40;8.20;;;3.50;99.90;;;;;;5021190;28;20486;-58
2022/12/01 11:01:47;;;;;;;15.53;8.03;;;3.50;99.90;;;;;;5021275;28;22054;-59
2022/12/01 11:04:26;;;;;;;13.97;7.63;;;3.50;99.90;;;;;;5016482;28;20184;-58
2022/12/01 11:06:52;;;;;;;15.37;7.83;;;3.50;99.90;;;;;;5026005;28;20438;-59
2022/12/01 11:09:20;;;;;;;14.73;7.10;;;3.50;99.90;;;;;;5024888;28;20974;-58
2022/12/01 11:11:55;;;;;;;14.40;7.70;;;3.50;99.90;;;;;;5024068;28;20434;-59
2022/12/01 11:14:26;;;;;;;13.93;8.27;;;3.50;99.90;;;;;;5019761;28;20430;-58
2022/12/01 11:16:53;;;;;;;11.43;7.20;;;3.50;99.90;;;;;;5023008;28;20430;-58
2022/12/01 11:19:29;;;;;;;11.73;6.80;;;3.60;99.90;;;;;;5024746;28;20533;-59
2022/12/01 11:22:26;;;;;;;11.30;7.00;;;3.60;99.90;;;;;;5024356;28;20429;-58
2022/12/01 11:24:51;;;;;;;13.33;6.90;;;3.60;99.90;;;;;;4989225;28;20447;-59
2022/12/01 11:27:21;;;;;;;15.40;7.00;;;3.60;99.90;;;;;;5026542;28;20531;-58
2022/12/01 11:29:50;;;;;;;14.30;7.40;;;3.60;99.90;;;;;;5027911;28;20696;-58
2022/12/01 11:32:21;;;;;;;13.43;7.00;;;3.60;99.90;;;;;;5023178;28;20492;-59
2022/12/01 11:34:50;;;;;;;9.50;6.20;;;3.60;99.90;;;;;;5020482;28;20792;-59
2022/12/01 11:37:19;;;;;;;12.30;7.13;;;3.60;99.90;;;;;;5022651;28;20721;-59
2022/12/01 11:39:46;;;;;;;11.30;6.70;;;3.60;99.90;;;;;;5022193;28;20457;-58
2022/12/01 11:42:12;;;;;;;16.37;7.40;;;3.60;99.90;;;;;;5024661;28;20430;-58
2022/12/01 11:44:39;;;;;;;18.67;7.43;;;3.60;99.90;;;;;;5025246;28;20456;-58
2022/12/01 11:47:20;;;;;;;14.50;7.40;;;3.70;99.90;;;;;;5008250;28;20184;-58
2022/12/01 11:49:53;;;;;;;11.77;6.60;;;3.70;99.90;;;;;;5023405;28;20460;-58
2022/12/01 11:52:35;;;;;;;12.60;6.90;;;3.80;99.90;;;;;;5020180;28;20526;-59
2022/12/01 11:55:10;;;;;;;15.97;8.10;;;3.80;99.90;;;;;;5022029;28;20435;-61
2022/12/01 11:57:38;;;;;;;14.83;7.20;;;3.90;99.90;;;;;;5018757;28;20514;-58
2022/12/01 12:00:15;;;;;;;12.90;7.00;;;3.90;99.90;;;;;;5018894;28;20484;-58
2022/12/01 12:03:03;;;;;;;14.20;7.60;;;3.90;99.90;;;;;;5001880;28;20444;-59
2022/12/01 12:05:53;;;;;;;13.70;7.90;;;3.90;99.90;;;;;;5024064;28;20446;-58
2022/12/01 12:09:01;;;;;;;17.20;8.80;;;3.90;99.90;;;;;;5015783;28;20513;-59
2022/12/01 12:12:02;;;;;;;14.63;7.30;;;3.90;99.90;;;;;;4976576;28;20446;-59
2022/12/01 12:14:53;;;;;;;13.83;7.50;;;3.90;99.90;;;;;;5020260;28;20482;-58
2022/12/01 12:17:46;;;;;;;12.53;7.73;;;3.90;99.90;;;;;;5024928;28;20427;-58
2022/12/01 12:20:29;;;;;;;13.70;6.80;;;3.90;99.90;;;;;;5022007;28;20449;-58
2022/12/01 12:23:36;;;;;;;12.17;6.73;;;3.90;99.90;;;;;;5019647;28;22294;-58
2022/12/01 12:26:04;;;;;;;9.60;5.87;;;3.90;99.90;;;;;;5021994;28;20443;-59
2022/12/01 12:28:51;;;;;;;12.70;7.20;;;3.90;99.90;;;;;;5024412;28;20524;-60
2022/12/01 12:31:48;;;;;;;12.13;6.87;;;3.90;99.90;;;;;;5023866;28;20457;-60
2022/12/01 12:34:37;;;;;;;12.23;7.17;;;4.00;99.90;;;;;;5022071;28;20502;-59
2022/12/01 12:37:11;;;;;;;14.30;7.03;;;4.00;99.90;;;;;;5022642;28;20533;-59
2022/12/01 12:40:18;;;;;;;15.43;7.60;;;3.90;99.90;;;;;;5023748;28;20461;-59
2022/12/01 12:43:18;;;;;;;13.80;7.50;;;3.90;99.90;;;;;;4998513;28;20430;-59
2022/12/01 12:46:00;;;;;;;12.13;6.60;;;3.90;99.90;;;;;;4965056;28;20441;-59
2022/12/01 12:48:48;;;;;;;9.80;6.00;;;3.90;99.90;;;;;;5002798;28;20476;-58
2022/12/01 12:51:31;;;;;;;17.33;6.87;;;4.00;99.90;;;;;;5023170;28;20468;-59
2022/12/01 12:54:19;;;;;;;14.93;7.30;;;4.00;99.90;;;;;;5026670;28;20399;-58
2022/12/01 12:56:48;;;;;;;11.77;6.53;;;4.10;99.90;;;;;;5018025;28;20954;-58
2022/12/01 12:59:37;;;;;;;13.10;6.87;;;4.10;99.90;;;;;;5021255;28;20554;-58
2022/12/01 13:02:15;;;;;;;13.23;6.67;;;4.20;99.90;;;;;;5020503;28;20544;-60
2022/12/01 13:05:19;;;;;;;13.43;7.47;;;4.20;99.90;;;;;;5023086;28;20422;-59
2022/12/01 13:08:15;;;;;;;9.40;5.67;;;4.10;99.90;;;;;;5020620;28;20465;-59
2022/12/01 13:10:49;;;;;;;12.13;6.60;;;4.10;99.90;;;;;;5027713;28;20535;-59
2022/12/01 13:13:26;;;;;;;9.97;6.10;;;4.10;99.90;;;;;;5024163;28;20449;-59